createdAt,value
2022-12-23T15:21:12.371Z,10.07
2022-12-23T15:23:47.430Z,10.65
2022-12-23T15:26:14.461Z,11.15
2022-12-23T15:28:41.291Z,11.63
2022-12-23T15:31:20.521Z,12.68
2022-12-23T15:34:04.618Z,13.27
2022-12-23T15:36:36.197Z,12.98
2022-12-23T15:39:08.359Z,11.82
2022-12-23T15:41:41.279Z,12.38
2022-12-23T15:44:10.390Z,14.30
2022-12-23T15:46:38.827Z,15.38
2022-12-23T15:49:05.298Z,12.63
2022-12-23T15:54:21.678Z,12.77
2022-12-23T15:56:49.067Z,12.52
2022-12-23T15:59:22.397Z,13.13
2022-12-23T16:01:48.861Z,13.85
2022-12-23T16:04:19.565Z,12.77
2022-12-23T16:06:48.895Z,15.48
2022-12-23T16:09:18.008Z,14.15
2022-12-23T16:11:53.519Z,20.35
2022-12-23T16:14:22.024Z,19.58
2022-12-23T16:16:48.526Z,16.33
2022-12-23T16:19:33.569Z,15.43
2022-12-23T16:21:59.843Z,16.08
2022-12-23T16:24:26.162Z,15.68
2022-12-23T16:26:54.000Z,15.80
2022-12-23T16:29:20.923Z,18.15
2022-12-23T16:31:53.208Z,28.80
2022-12-23T16:34:22.277Z,21.25
2022-12-23T16:36:48.556Z,21.95
2022-12-23T16:39:18.948Z,22.75
2022-12-23T16:41:45.267Z,25.98
2022-12-23T16:44:11.634Z,21.02
2022-12-23T16:46:39.737Z,19.30
2022-12-23T16:49:08.391Z,18.50
2022-12-23T16:51:34.841Z,18.80
2022-12-23T16:54:01.417Z,20.15
2022-12-23T16:56:28.452Z,19.15
2022-12-23T16:58:54.774Z,17.63
2022-12-23T17:01:23.147Z,18.73
2022-12-23T17:03:49.862Z,22.23
2022-12-23T17:06:16.498Z,23.63
2022-12-23T17:08:43.295Z,20.65
2022-12-23T17:11:23.217Z,23.33
2022-12-23T17:13:49.836Z,23.30
2022-12-23T17:16:19.872Z,20.08
2022-12-23T17:18:47.181Z,16.38
2022-12-23T17:21:21.521Z,20.65
2022-12-23T17:23:47.965Z,13.43
2022-12-23T17:26:14.797Z,13.57
2022-12-23T17:28:41.198Z,12.18
2022-12-23T17:31:14.232Z,14.02
2022-12-23T17:33:41.824Z,14.35
2022-12-23T17:36:09.948Z,15.27
2022-12-23T17:38:36.331Z,15.43
2022-12-23T17:41:03.957Z,16.67
2022-12-23T17:43:30.315Z,16.05
2022-12-23T17:45:56.680Z,16.67
2022-12-23T17:48:28.007Z,17.08
2022-12-23T17:50:57.553Z,17.13
2022-12-23T17:53:23.888Z,16.52
2022-12-23T17:55:50.204Z,17.63
2022-12-23T17:58:16.650Z,17.92
2022-12-23T18:00:43.279Z,17.65
2022-12-23T18:03:18.170Z,14.95
2022-12-23T18:05:44.401Z,16.42
2022-12-23T18:08:10.656Z,18.80
2022-12-23T18:10:39.716Z,17.05
2022-12-23T18:13:07.688Z,18.13
2022-12-23T18:15:39.137Z,14.75
2022-12-23T18:18:20.521Z,14.80
2022-12-23T18:20:54.629Z,12.38
2022-12-23T18:23:25.250Z,10.85
2022-12-23T18:28:17.706Z,12.48
2022-12-23T18:30:44.096Z,10.35
2022-12-23T18:33:11.550Z,10.95
2022-12-23T18:35:39.616Z,11.30
2022-12-23T18:38:05.888Z,13.88
2022-12-23T18:40:33.127Z,11.70
2022-12-23T18:42:59.635Z,15.50
2022-12-23T18:45:28.806Z,11.15
2022-12-23T18:47:55.508Z,12.10
2022-12-23T18:50:22.264Z,13.00
2022-12-23T18:52:48.628Z,11.95
2022-12-23T18:55:14.991Z,13.38
2022-12-23T18:57:41.384Z,11.93
2022-12-23T19:00:11.432Z,11.07
2022-12-23T19:02:37.768Z,9.80
2022-12-23T19:05:04.266Z,10.52
2022-12-23T19:07:30.716Z,11.10
2022-12-23T19:09:57.537Z,12.07
2022-12-23T19:12:23.828Z,10.38
2022-12-23T19:14:50.175Z,11.80
2022-12-23T19:17:17.351Z,11.50
2022-12-23T19:19:43.585Z,11.82
2022-12-23T19:22:09.864Z,13.85
2022-12-23T19:24:36.522Z,11.88
2022-12-23T19:27:05.950Z,10.73
2022-12-23T19:29:32.179Z,10.68
2022-12-23T19:31:58.486Z,9.93
2022-12-23T19:34:24.817Z,11.70
2022-12-23T19:36:51.176Z,10.00
2022-12-23T19:39:20.451Z,10.50
2022-12-23T19:41:46.779Z,10.45
2022-12-23T19:44:13.405Z,16.17
2022-12-23T19:46:39.770Z,13.68
2022-12-23T19:49:06.140Z,9.48
2022-12-23T19:51:32.497Z,9.52
2022-12-23T19:53:58.813Z,10.50
2022-12-23T19:56:25.943Z,10.02
2022-12-23T19:58:52.280Z,10.35
2022-12-23T20:01:20.232Z,9.70
2022-12-23T20:03:47.328Z,9.77
2022-12-23T20:06:16.237Z,9.93
2022-12-23T20:08:43.735Z,10.57
2022-12-23T20:11:12.514Z,11.77
2022-12-23T20:13:38.793Z,11.57
2022-12-23T20:16:05.675Z,9.77
2022-12-23T20:18:32.061Z,10.05
2022-12-23T20:20:59.053Z,9.98
2022-12-23T20:23:25.398Z,10.30
2022-12-23T20:25:51.720Z,15.85
2022-12-23T20:28:17.978Z,9.70
2022-12-23T20:30:45.395Z,8.98
2022-12-23T20:33:11.677Z,10.88
2022-12-23T20:35:37.946Z,8.38
2022-12-23T20:38:04.224Z,7.30
2022-12-23T20:40:30.534Z,8.20
2022-12-23T20:42:58.233Z,8.40
2022-12-23T20:45:25.538Z,6.32
2022-12-23T20:47:52.717Z,6.38
2022-12-23T20:50:19.008Z,6.32
2022-12-23T20:52:45.253Z,6.78
2022-12-23T20:55:11.536Z,6.68
2022-12-23T20:57:37.864Z,7.70
2022-12-23T21:00:04.613Z,6.97
2022-12-23T21:02:30.870Z,7.88
2022-12-23T21:04:57.205Z,7.07
2022-12-23T21:07:26.060Z,7.32
2022-12-23T21:09:52.398Z,5.97
2022-12-23T21:12:18.803Z,5.82
2022-12-23T21:14:45.078Z,6.32
2022-12-23T21:17:11.550Z,10.80
2022-12-23T21:19:37.864Z,29.52
2022-12-23T21:22:04.140Z,25.73
2022-12-23T21:24:30.375Z,11.27
2022-12-23T21:26:57.370Z,8.65
2022-12-23T21:29:24.030Z,9.80
2022-12-23T21:31:50.368Z,11.48
2022-12-23T21:34:17.867Z,7.88
2022-12-23T21:36:44.243Z,8.25
2022-12-23T21:39:13.433Z,7.60
2022-12-23T21:41:41.657Z,6.15
2022-12-23T21:44:08.387Z,6.40
2022-12-23T21:46:35.041Z,7.88
2022-12-23T21:49:01.744Z,9.25
2022-12-23T21:51:38.580Z,11.73
2022-12-23T21:54:06.263Z,16.60
2022-12-23T21:56:33.016Z,18.73
2022-12-23T21:59:00.905Z,16.63
2022-12-23T22:01:27.634Z,7.95
2022-12-23T22:03:54.476Z,8.13
2022-12-23T22:06:27.863Z,9.05
2022-12-23T22:08:54.731Z,6.72
2022-12-23T22:11:22.357Z,7.13
2022-12-23T22:13:49.448Z,6.95
2022-12-23T22:16:16.796Z,7.93
2022-12-23T22:18:43.306Z,6.57
2022-12-23T22:21:10.944Z,7.13
2022-12-23T22:23:37.744Z,7.30
2022-12-23T22:26:05.014Z,9.00
2022-12-23T22:28:32.274Z,7.35
2022-12-23T22:31:02.771Z,5.70
2022-12-23T22:35:56.158Z,8.07
2022-12-23T22:38:22.594Z,7.80
2022-12-23T22:40:49.508Z,10.35
2022-12-23T22:43:15.938Z,8.73
2022-12-23T22:45:42.277Z,6.13
2022-12-23T22:48:08.595Z,5.50
2022-12-23T22:50:35.038Z,6.80
2022-12-23T22:53:01.436Z,7.00
2022-12-23T22:55:27.801Z,6.97
2022-12-23T22:57:54.048Z,6.25
2022-12-23T23:00:20.401Z,7.35
2022-12-23T23:02:46.636Z,6.65
2022-12-23T23:05:13.465Z,6.78
2022-12-23T23:07:39.877Z,6.43
